sensor_id;sensor_type;location;lat;lon;timestamp;P1;durP1;ratioP1;P2;durP2;ratioP2
46925;SDS011;32667;48.248;-1.700;2023-04-03T00:00:32;0.30;;;0.30;;
46925;SDS011;32667;48.248;-1.700;2023-04-03T00:02:58;0.28;;;0.28;;
46925;SDS011;32667;48.248;-1.700;2023-04-03T00:05:24;0.30;;;0.30;;
46925;SDS011;32667;48.248;-1.700;2023-04-03T00:07:50;0.30;;;0.30;;
46925;SDS011;32667;48.248;-1.700;2023-04-03T00:10:16;0.30;;;0.30;;
46925;SDS011;32667;48.248;-1.700;2023-04-03T00:12:42;0.30;;;0.30;;
46925;SDS011;32667;48.248;-1.700;2023-04-03T00:15:15;0.20;;;0.20;;
46925;SDS011;32667;48.248;-1.700;2023-04-03T00:17:42;0.22;;;0.22;;
46925;SDS011;32667;48.248;-1.700;2023-04-03T00:20:07;0.20;;;0.20;;
46925;SDS011;32667;48.248;-1.700;2023-04-03T00:22:33;0.30;;;0.30;;
46925;SDS011;32667;48.248;-1.700;2023-04-03T00:24:59;0.30;;;0.30;;
46925;SDS011;32667;48.248;-1.700;2023-04-03T00:27:27;0.22;;;0.22;;
46925;SDS011;32667;48.248;-1.700;2023-04-03T00:29:54;0.30;;;0.30;;
46925;SDS011;32667;48.248;-1.700;2023-04-03T00:32:20;0.20;;;0.20;;
46925;SDS011;32667;48.248;-1.700;2023-04-03T00:34:45;0.30;;;0.30;;
46925;SDS011;32667;48.248;-1.700;2023-04-03T00:37:11;0.20;;;0.20;;
46925;SDS011;32667;48.248;-1.700;2023-04-03T00:39:37;0.20;;;0.20;;
46925;SDS011;32667;48.248;-1.700;2023-04-03T00:42:05;0.30;;;0.30;;
46925;SDS011;32667;48.248;-1.700;2023-04-03T00:47:00;0.30;;;0.30;;
46925;SDS011;32667;48.248;-1.700;2023-04-03T00:49:27;0.30;;;0.30;;
46925;SDS011;32667;48.248;-1.700;2023-04-03T00:51:53;0.30;;;0.30;;
46925;SDS011;32667;48.248;-1.700;2023-04-03T00:54:20;0.30;;;0.30;;
46925;SDS011;32667;48.248;-1.700;2023-04-03T00:56:46;0.30;;;0.30;;
46925;SDS011;32667;48.248;-1.700;2023-04-03T00:59:14;0.40;;;0.30;;
46925;SDS011;32667;48.248;-1.700;2023-04-03T01:01:46;0.30;;;0.30;;
46925;SDS011;32667;48.248;-1.700;2023-04-03T01:04:32;0.30;;;0.30;;
46925;SDS011;32667;48.248;-1.700;2023-04-03T01:07:07;0.30;;;0.30;;
46925;SDS011;32667;48.248;-1.700;2023-04-03T01:09:35;0.30;;;0.30;;
46925;SDS011;32667;48.248;-1.700;2023-04-03T01:12:18;0.30;;;0.30;;
46925;SDS011;32667;48.248;-1.700;2023-04-03T01:14:53;0.30;;;0.30;;
46925;SDS011;32667;48.248;-1.700;2023-04-03T01:25:36;0.30;;;0.30;;
46925;SDS011;32667;48.248;-1.700;2023-04-03T01:28:05;0.30;;;0.30;;
46925;SDS011;32667;48.248;-1.700;2023-04-03T01:30:36;0.30;;;0.30;;
46925;SDS011;32667;48.248;-1.700;2023-04-03T01:33:37;0.30;;;0.30;;
46925;SDS011;32667;48.248;-1.700;2023-04-03T01:36:03;0.30;;;0.30;;
46925;SDS011;32667;48.248;-1.700;2023-04-03T01:38:30;0.32;;;0.30;;
46925;SDS011;32667;48.248;-1.700;2023-04-03T01:40:56;0.30;;;0.30;;
46925;SDS011;32667;48.248;-1.700;2023-04-03T01:43:22;0.22;;;0.22;;
46925;SDS011;32667;48.248;-1.700;2023-04-03T01:45:47;0.20;;;0.20;;
46925;SDS011;32667;48.248;-1.700;2023-04-03T01:48:15;0.30;;;0.30;;
46925;SDS011;32667;48.248;-1.700;2023-04-03T01:50:41;0.30;;;0.30;;
46925;SDS011;32667;48.248;-1.700;2023-04-03T01:53:07;0.30;;;0.30;;
46925;SDS011;32667;48.248;-1.700;2023-04-03T01:55:33;0.30;;;0.30;;
46925;SDS011;32667;48.248;-1.700;2023-04-03T01:57:58;0.30;;;0.30;;
46925;SDS011;32667;48.248;-1.700;2023-04-03T02:00:24;0.30;;;0.30;;
46925;SDS011;32667;48.248;-1.700;2023-04-03T02:02:51;0.30;;;0.30;;
46925;SDS011;32667;48.248;-1.700;2023-04-03T02:05:17;0.30;;;0.30;;
46925;SDS011;32667;48.248;-1.700;2023-04-03T02:07:45;0.30;;;0.30;;
46925;SDS011;32667;48.248;-1.700;2023-04-03T02:10:11;0.30;;;0.30;;
46925;SDS011;32667;48.248;-1.700;2023-04-03T02:12:38;0.30;;;0.30;;
46925;SDS011;32667;48.248;-1.700;2023-04-03T02:15:06;0.30;;;0.30;;
46925;SDS011;32667;48.248;-1.700;2023-04-03T02:17:42;0.30;;;0.30;;
46925;SDS011;32667;48.248;-1.700;2023-04-03T02:20:08;0.30;;;0.30;;
46925;SDS011;32667;48.248;-1.700;2023-04-03T02:22:34;0.30;;;0.30;;
46925;SDS011;32667;48.248;-1.700;2023-04-03T02:25:03;0.35;;;0.30;;
46925;SDS011;32667;48.248;-1.700;2023-04-03T02:27:31;0.30;;;0.30;;
46925;SDS011;32667;48.248;-1.700;2023-04-03T02:29:57;0.30;;;0.30;;
46925;SDS011;32667;48.248;-1.700;2023-04-03T02:32:23;0.30;;;0.30;;
46925;SDS011;32667;48.248;-1.700;2023-04-03T02:34:49;0.30;;;0.30;;
46925;SDS011;32667;48.248;-1.700;2023-04-03T02:37:17;0.43;;;0.30;;
46925;SDS011;32667;48.248;-1.700;2023-04-03T02:39:43;0.30;;;0.30;;
46925;SDS011;32667;48.248;-1.700;2023-04-03T02:42:08;0.22;;;0.22;;
46925;SDS011;32667;48.248;-1.700;2023-04-03T02:44:34;0.30;;;0.30;;
46925;SDS011;32667;48.248;-1.700;2023-04-03T02:47:01;0.30;;;0.30;;
46925;SDS011;32667;48.248;-1.700;2023-04-03T02:49:27;0.55;;;0.30;;
46925;SDS011;32667;48.248;-1.700;2023-04-03T02:51:53;0.30;;;0.30;;
46925;SDS011;32667;48.248;-1.700;2023-04-03T02:54:19;0.50;;;0.30;;
46925;SDS011;32667;48.248;-1.700;2023-04-03T02:56:47;0.30;;;0.30;;
46925;SDS011;32667;48.248;-1.700;2023-04-03T02:59:12;0.52;;;0.32;;
46925;SDS011;32667;48.248;-1.700;2023-04-03T03:01:39;0.30;;;0.30;;
46925;SDS011;32667;48.248;-1.700;2023-04-03T03:04:05;0.30;;;0.30;;
46925;SDS011;32667;48.248;-1.700;2023-04-03T03:09:33;0.30;;;0.30;;
46925;SDS011;32667;48.248;-1.700;2023-04-03T03:11:59;0.30;;;0.30;;
46925;SDS011;32667;48.248;-1.700;2023-04-03T03:14:27;0.40;;;0.30;;
46925;SDS011;32667;48.248;-1.700;2023-04-03T03:16:53;0.30;;;0.30;;
46925;SDS011;32667;48.248;-1.700;2023-04-03T03:19:19;0.30;;;0.30;;
46925;SDS011;32667;48.248;-1.700;2023-04-03T03:21:45;0.30;;;0.30;;
46925;SDS011;32667;48.248;-1.700;2023-04-03T03:24:11;0.30;;;0.30;;
46925;SDS011;32667;48.248;-1.700;2023-04-03T03:26:40;0.30;;;0.30;;
46925;SDS011;32667;48.248;-1.700;2023-04-03T03:29:06;0.30;;;0.30;;
46925;SDS011;32667;48.248;-1.700;2023-04-03T03:31:32;0.32;;;0.30;;
46925;SDS011;32667;48.248;-1.700;2023-04-03T03:33:58;0.30;;;0.30;;
46925;SDS011;32667;48.248;-1.700;2023-04-03T03:36:23;0.30;;;0.30;;
46925;SDS011;32667;48.248;-1.700;2023-04-03T03:38:49;0.38;;;0.35;;
46925;SDS011;32667;48.248;-1.700;2023-04-03T03:41:15;0.40;;;0.30;;
46925;SDS011;32667;48.248;-1.700;2023-04-03T03:43:41;0.30;;;0.30;;
46925;SDS011;32667;48.248;-1.700;2023-04-03T03:46:06;0.30;;;0.30;;
46925;SDS011;32667;48.248;-1.700;2023-04-03T03:48:35;0.30;;;0.30;;
46925;SDS011;32667;48.248;-1.700;2023-04-03T03:51:00;0.30;;;0.30;;
46925;SDS011;32667;48.248;-1.700;2023-04-03T03:53:26;0.30;;;0.30;;
46925;SDS011;32667;48.248;-1.700;2023-04-03T03:55:52;0.40;;;0.32;;
46925;SDS011;32667;48.248;-1.700;2023-04-03T03:58:18;0.30;;;0.30;;
46925;SDS011;32667;48.248;-1.700;2023-04-03T04:00:44;0.30;;;0.30;;
46925;SDS011;32667;48.248;-1.700;2023-04-03T04:03:13;0.30;;;0.30;;
46925;SDS011;32667;48.248;-1.700;2023-04-03T04:05:38;0.30;;;0.30;;
46925;SDS011;32667;48.248;-1.700;2023-04-03T04:08:04;0.30;;;0.30;;
46925;SDS011;32667;48.248;-1.700;2023-04-03T04:10:30;0.30;;;0.30;;
46925;SDS011;32667;48.248;-1.700;2023-04-03T04:12:56;0.30;;;0.30;;
46925;SDS011;32667;48.248;-1.700;2023-04-03T04:15:21;0.30;;;0.30;;
46925;SDS011;32667;48.248;-1.700;2023-04-03T04:17:48;0.30;;;0.30;;
46925;SDS011;32667;48.248;-1.700;2023-04-03T04:20:13;0.30;;;0.30;;
46925;SDS011;32667;48.248;-1.700;2023-04-03T04:22:42;0.30;;;0.30;;
46925;SDS011;32667;48.248;-1.700;2023-04-03T04:25:08;0.30;;;0.30;;
46925;SDS011;32667;48.248;-1.700;2023-04-03T04:27:34;0.30;;;0.30;;
46925;SDS011;32667;48.248;-1.700;2023-04-03T04:29:59;0.30;;;0.30;;
46925;SDS011;32667;48.248;-1.700;2023-04-03T04:32:26;0.30;;;0.30;;
46925;SDS011;32667;48.248;-1.700;2023-04-03T04:34:51;0.30;;;0.30;;
46925;SDS011;32667;48.248;-1.700;2023-04-03T04:37:17;0.45;;;0.35;;
46925;SDS011;32667;48.248;-1.700;2023-04-03T04:39:45;0.50;;;0.30;;
46925;SDS011;32667;48.248;-1.700;2023-04-03T04:42:11;0.30;;;0.30;;
46925;SDS011;32667;48.248;-1.700;2023-04-03T04:44:40;0.30;;;0.30;;
46925;SDS011;32667;48.248;-1.700;2023-04-03T04:47:06;0.30;;;0.30;;
46925;SDS011;32667;48.248;-1.700;2023-04-03T04:49:34;0.30;;;0.30;;
46925;SDS011;32667;48.248;-1.700;2023-04-03T04:52:00;0.30;;;0.30;;
46925;SDS011;32667;48.248;-1.700;2023-04-03T04:54:33;0.30;;;0.30;;
46925;SDS011;32667;48.248;-1.700;2023-04-03T04:56:58;0.30;;;0.30;;
46925;SDS011;32667;48.248;-1.700;2023-04-03T04:59:24;0.30;;;0.30;;
46925;SDS011;32667;48.248;-1.700;2023-04-03T05:01:50;0.30;;;0.30;;
46925;SDS011;32667;48.248;-1.700;2023-04-03T05:04:16;0.30;;;0.30;;
46925;SDS011;32667;48.248;-1.700;2023-04-03T05:06:45;0.30;;;0.30;;
46925;SDS011;32667;48.248;-1.700;2023-04-03T05:09:10;0.30;;;0.30;;
46925;SDS011;32667;48.248;-1.700;2023-04-03T05:11:37;0.47;;;0.38;;
46925;SDS011;32667;48.248;-1.700;2023-04-03T05:14:03;0.30;;;0.30;;
46925;SDS011;32667;48.248;-1.700;2023-04-03T05:16:31;0.60;;;0.40;;
46925;SDS011;32667;48.248;-1.700;2023-04-03T05:18:59;0.40;;;0.30;;
46925;SDS011;32667;48.248;-1.700;2023-04-03T05:21:28;0.30;;;0.30;;
46925;SDS011;32667;48.248;-1.700;2023-04-03T05:23:58;0.40;;;0.30;;
46925;SDS011;32667;48.248;-1.700;2023-04-03T05:26:24;0.50;;;0.40;;
46925;SDS011;32667;48.248;-1.700;2023-04-03T05:28:52;0.30;;;0.30;;
46925;SDS011;32667;48.248;-1.700;2023-04-03T05:31:18;0.30;;;0.30;;
46925;SDS011;32667;48.248;-1.700;2023-04-03T05:33:44;0.30;;;0.30;;
46925;SDS011;32667;48.248;-1.700;2023-04-03T05:36:11;0.30;;;0.30;;
46925;SDS011;32667;48.248;-1.700;2023-04-03T05:38:37;0.30;;;0.30;;
46925;SDS011;32667;48.248;-1.700;2023-04-03T05:41:04;0.32;;;0.30;;
46925;SDS011;32667;48.248;-1.700;2023-04-03T05:43:30;0.30;;;0.30;;
46925;SDS011;32667;48.248;-1.700;2023-04-03T05:45:55;0.30;;;0.30;;
46925;SDS011;32667;48.248;-1.700;2023-04-03T05:48:21;0.38;;;0.38;;
46925;SDS011;32667;48.248;-1.700;2023-04-03T05:50:49;0.30;;;0.30;;
46925;SDS011;32667;48.248;-1.700;2023-04-03T05:53:17;0.30;;;0.30;;
46925;SDS011;32667;48.248;-1.700;2023-04-03T05:55:49;0.55;;;0.30;;
46925;SDS011;32667;48.248;-1.700;2023-04-03T05:58:15;0.50;;;0.30;;
46925;SDS011;32667;48.248;-1.700;2023-04-03T06:00:41;0.35;;;0.35;;
46925;SDS011;32667;48.248;-1.700;2023-04-03T06:03:10;0.30;;;0.30;;
46925;SDS011;32667;48.248;-1.700;2023-04-03T06:05:36;0.30;;;0.30;;
46925;SDS011;32667;48.248;-1.700;2023-04-03T06:08:02;0.35;;;0.35;;
46925;SDS011;32667;48.248;-1.700;2023-04-03T06:10:28;0.30;;;0.30;;
46925;SDS011;32667;48.248;-1.700;2023-04-03T06:12:54;0.30;;;0.30;;
46925;SDS011;32667;48.248;-1.700;2023-04-03T06:15:20;0.30;;;0.30;;
46925;SDS011;32667;48.248;-1.700;2023-04-03T06:17:46;0.30;;;0.30;;
46925;SDS011;32667;48.248;-1.700;2023-04-03T06:20:15;0.30;;;0.30;;
46925;SDS011;32667;48.248;-1.700;2023-04-03T06:22:41;0.30;;;0.30;;
46925;SDS011;32667;48.248;-1.700;2023-04-03T06:25:07;0.32;;;0.30;;
46925;SDS011;32667;48.248;-1.700;2023-04-03T06:27:34;0.30;;;0.30;;
46925;SDS011;32667;48.248;-1.700;2023-04-03T06:30:00;0.30;;;0.30;;
46925;SDS011;32667;48.248;-1.700;2023-04-03T06:32:28;0.30;;;0.30;;
46925;SDS011;32667;48.248;-1.700;2023-04-03T06:34:53;0.30;;;0.30;;
46925;SDS011;32667;48.248;-1.700;2023-04-03T06:37:21;0.45;;;0.38;;
46925;SDS011;32667;48.248;-1.700;2023-04-03T06:39:47;0.40;;;0.30;;
46925;SDS011;32667;48.248;-1.700;2023-04-03T06:42:14;0.30;;;0.30;;
46925;SDS011;32667;48.248;-1.700;2023-04-03T06:44:42;0.30;;;0.30;;
46925;SDS011;32667;48.248;-1.700;2023-04-03T06:47:09;0.30;;;0.30;;
46925;SDS011;32667;48.248;-1.700;2023-04-03T06:49:37;0.40;;;0.30;;
46925;SDS011;32667;48.248;-1.700;2023-04-03T06:52:03;0.30;;;0.30;;
46925;SDS011;32667;48.248;-1.700;2023-04-03T06:54:30;0.40;;;0.30;;
46925;SDS011;32667;48.248;-1.700;2023-04-03T06:56:56;0.30;;;0.30;;
46925;SDS011;32667;48.248;-1.700;2023-04-03T06:59:23;0.30;;;0.30;;
46925;SDS011;32667;48.248;-1.700;2023-04-03T07:01:48;0.30;;;0.30;;
46925;SDS011;32667;48.248;-1.700;2023-04-03T07:04:14;0.30;;;0.30;;
46925;SDS011;32667;48.248;-1.700;2023-04-03T07:06:41;0.30;;;0.30;;
46925;SDS011;32667;48.248;-1.700;2023-04-03T07:09:08;0.30;;;0.30;;
46925;SDS011;32667;48.248;-1.700;2023-04-03T07:11:37;0.30;;;0.30;;
46925;SDS011;32667;48.248;-1.700;2023-04-03T07:14:03;0.30;;;0.30;;
46925;SDS011;32667;48.248;-1.700;2023-04-03T07:16:29;0.30;;;0.30;;
46925;SDS011;32667;48.248;-1.700;2023-04-03T07:18:56;0.50;;;0.30;;
46925;SDS011;32667;48.248;-1.700;2023-04-03T07:21:22;0.30;;;0.30;;
46925;SDS011;32667;48.248;-1.700;2023-04-03T07:23:48;0.30;;;0.30;;
46925;SDS011;32667;48.248;-1.700;2023-04-03T07:26:14;0.30;;;0.30;;
46925;SDS011;32667;48.248;-1.700;2023-04-03T07:28:40;0.32;;;0.32;;
46925;SDS011;32667;48.248;-1.700;2023-04-03T07:31:07;0.40;;;0.40;;
46925;SDS011;32667;48.248;-1.700;2023-04-03T07:33:37;0.30;;;0.30;;
46925;SDS011;32667;48.248;-1.700;2023-04-03T07:36:03;0.40;;;0.30;;
46925;SDS011;32667;48.248;-1.700;2023-04-03T07:38:29;0.30;;;0.30;;
46925;SDS011;32667;48.248;-1.700;2023-04-03T07:40:55;0.40;;;0.40;;
46925;SDS011;32667;48.248;-1.700;2023-04-03T07:43:21;0.30;;;0.30;;
46925;SDS011;32667;48.248;-1.700;2023-04-03T07:45:50;0.30;;;0.30;;
46925;SDS011;32667;48.248;-1.700;2023-04-03T07:48:17;0.30;;;0.30;;
46925;SDS011;32667;48.248;-1.700;2023-04-03T07:50:44;0.30;;;0.30;;
46925;SDS011;32667;48.248;-1.700;2023-04-03T07:53:10;0.32;;;0.30;;
46925;SDS011;32667;48.248;-1.700;2023-04-03T07:55:36;0.30;;;0.30;;
46925;SDS011;32667;48.248;-1.700;2023-04-03T07:58:08;0.30;;;0.30;;
46925;SDS011;32667;48.248;-1.700;2023-04-03T08:00:38;0.30;;;0.30;;
46925;SDS011;32667;48.248;-1.700;2023-04-03T08:03:04;0.22;;;0.22;;
46925;SDS011;32667;48.248;-1.700;2023-04-03T08:05:31;0.30;;;0.30;;
46925;SDS011;32667;48.248;-1.700;2023-04-03T08:08:02;0.32;;;0.30;;
46925;SDS011;32667;48.248;-1.700;2023-04-03T08:10:29;0.38;;;0.30;;
46925;SDS011;32667;48.248;-1.700;2023-04-03T08:12:58;0.30;;;0.30;;
46925;SDS011;32667;48.248;-1.700;2023-04-03T08:15:24;0.30;;;0.30;;
46925;SDS011;32667;48.248;-1.700;2023-04-03T08:17:52;0.40;;;0.30;;
46925;SDS011;32667;48.248;-1.700;2023-04-03T08:20:18;0.50;;;0.30;;
46925;SDS011;32667;48.248;-1.700;2023-04-03T08:22:47;0.32;;;0.30;;
46925;SDS011;32667;48.248;-1.700;2023-04-03T08:25:13;0.30;;;0.30;;
46925;SDS011;32667;48.248;-1.700;2023-04-03T08:27:39;0.30;;;0.30;;
46925;SDS011;32667;48.248;-1.700;2023-04-03T08:30:05;0.30;;;0.30;;
46925;SDS011;32667;48.248;-1.700;2023-04-03T08:32:32;0.30;;;0.30;;
46925;SDS011;32667;48.248;-1.700;2023-04-03T08:34:59;0.30;;;0.30;;
46925;SDS011;32667;48.248;-1.700;2023-04-03T08:37:25;0.30;;;0.30;;
46925;SDS011;32667;48.248;-1.700;2023-04-03T08:39:51;0.30;;;0.30;;
46925;SDS011;32667;48.248;-1.700;2023-04-03T08:45:10;0.30;;;0.30;;
46925;SDS011;32667;48.248;-1.700;2023-04-03T08:47:50;0.30;;;0.30;;
46925;SDS011;32667;48.248;-1.700;2023-04-03T08:50:34;0.30;;;0.30;;
46925;SDS011;32667;48.248;-1.700;2023-04-03T08:53:05;0.32;;;0.30;;
46925;SDS011;32667;48.248;-1.700;2023-04-03T08:55:44;0.30;;;0.30;;
46925;SDS011;32667;48.248;-1.700;2023-04-03T08:58:14;0.30;;;0.30;;
46925;SDS011;32667;48.248;-1.700;2023-04-03T09:03:18;0.30;;;0.30;;
46925;SDS011;32667;48.248;-1.700;2023-04-03T09:14:15;0.30;;;0.30;;
46925;SDS011;32667;48.248;-1.700;2023-04-03T09:22:03;0.30;;;0.30;;
46925;SDS011;32667;48.248;-1.700;2023-04-03T09:24:58;0.30;;;0.30;;
46925;SDS011;32667;48.248;-1.700;2023-04-03T09:27:25;0.30;;;0.30;;
46925;SDS011;32667;48.248;-1.700;2023-04-03T09:29:52;0.30;;;0.30;;
46925;SDS011;32667;48.248;-1.700;2023-04-03T09:34:57;0.30;;;0.30;;
46925;SDS011;32667;48.248;-1.700;2023-04-03T09:37:35;0.30;;;0.30;;
46925;SDS011;32667;48.248;-1.700;2023-04-03T09:40:29;0.30;;;0.30;;
46925;SDS011;32667;48.248;-1.700;2023-04-03T09:43:00;0.20;;;0.20;;
46925;SDS011;32667;48.248;-1.700;2023-04-03T09:45:44;0.30;;;0.30;;
46925;SDS011;32667;48.248;-1.700;2023-04-03T09:55:52;0.30;;;0.30;;
46925;SDS011;32667;48.248;-1.700;2023-04-03T09:58:26;0.30;;;0.30;;
46925;SDS011;32667;48.248;-1.700;2023-04-03T10:00:55;0.28;;;0.28;;
46925;SDS011;32667;48.248;-1.700;2023-04-03T10:03:34;0.30;;;0.30;;
46925;SDS011;32667;48.248;-1.700;2023-04-03T10:06:02;0.38;;;0.38;;
46925;SDS011;32667;48.248;-1.700;2023-04-03T10:08:37;0.30;;;0.30;;
46925;SDS011;32667;48.248;-1.700;2023-04-03T10:13:51;0.30;;;0.30;;
46925;SDS011;32667;48.248;-1.700;2023-04-03T10:16:25;0.30;;;0.30;;
46925;SDS011;32667;48.248;-1.700;2023-04-03T10:18:57;0.30;;;0.30;;
46925;SDS011;32667;48.248;-1.700;2023-04-03T10:21:55;0.30;;;0.30;;
46925;SDS011;32667;48.248;-1.700;2023-04-03T10:30:05;0.30;;;0.30;;
46925;SDS011;32667;48.248;-1.700;2023-04-03T10:44:36;0.30;;;0.30;;
46925;SDS011;32667;48.248;-1.700;2023-04-03T10:47:32;0.20;;;0.20;;
46925;SDS011;32667;48.248;-1.700;2023-04-03T10:50:20;0.30;;;0.30;;
46925;SDS011;32667;48.248;-1.700;2023-04-03T10:55:49;0.22;;;0.22;;
46925;SDS011;32667;48.248;-1.700;2023-04-03T10:58:26;0.30;;;0.30;;
46925;SDS011;32667;48.248;-1.700;2023-04-03T11:00:55;0.20;;;0.20;;
46925;SDS011;32667;48.248;-1.700;2023-04-03T11:03:30;0.30;;;0.30;;
46925;SDS011;32667;48.248;-1.700;2023-04-03T11:05:59;0.30;;;0.30;;
46925;SDS011;32667;48.248;-1.700;2023-04-03T11:11:30;0.30;;;0.30;;
46925;SDS011;32667;48.248;-1.700;2023-04-03T11:16:48;0.20;;;0.20;;
46925;SDS011;32667;48.248;-1.700;2023-04-03T11:19:21;0.20;;;0.20;;
46925;SDS011;32667;48.248;-1.700;2023-04-03T11:27:41;0.30;;;0.30;;
46925;SDS011;32667;48.248;-1.700;2023-04-03T11:30:27;0.20;;;0.20;;
46925;SDS011;32667;48.248;-1.700;2023-04-03T11:35:36;0.30;;;0.30;;
46925;SDS011;32667;48.248;-1.700;2023-04-03T11:38:07;0.30;;;0.30;;
46925;SDS011;32667;48.248;-1.700;2023-04-03T11:40:53;0.30;;;0.30;;
46925;SDS011;32667;48.248;-1.700;2023-04-03T11:43:21;0.30;;;0.30;;
46925;SDS011;32667;48.248;-1.700;2023-04-03T11:45:57;0.30;;;0.30;;
46925;SDS011;32667;48.248;-1.700;2023-04-03T11:51:41;0.25;;;0.25;;
46925;SDS011;32667;48.248;-1.700;2023-04-03T11:53:53;0.20;;;0.20;;
46925;SDS011;32667;48.248;-1.700;2023-04-03T12:04:24;0.30;;;0.30;;
46925;SDS011;32667;48.248;-1.700;2023-04-03T12:06:52;0.20;;;0.20;;
46925;SDS011;32667;48.248;-1.700;2023-04-03T12:09:27;0.32;;;0.30;;
46925;SDS011;32667;48.248;-1.700;2023-04-03T12:11:53;0.20;;;0.20;;
46925;SDS011;32667;48.248;-1.700;2023-04-03T12:14:22;0.22;;;0.22;;
46925;SDS011;32667;48.248;-1.700;2023-04-03T12:16:50;0.30;;;0.30;;
46925;SDS011;32667;48.248;-1.700;2023-04-03T12:19:37;0.20;;;0.20;;
46925;SDS011;32667;48.248;-1.700;2023-04-03T12:22:18;0.28;;;0.28;;
46925;SDS011;32667;48.248;-1.700;2023-04-03T12:24:47;0.20;;;0.20;;
46925;SDS011;32667;48.248;-1.700;2023-04-03T12:35:18;0.30;;;0.30;;
46925;SDS011;32667;48.248;-1.700;2023-04-03T12:48:38;0.25;;;0.25;;
46925;SDS011;32667;48.248;-1.700;2023-04-03T12:51:17;0.20;;;0.20;;
46925;SDS011;32667;48.248;-1.700;2023-04-03T12:54:10;0.20;;;0.20;;
46925;SDS011;32667;48.248;-1.700;2023-04-03T12:56:38;0.30;;;0.30;;
46925;SDS011;32667;48.248;-1.700;2023-04-03T13:01:52;0.20;;;0.20;;
46925;SDS011;32667;48.248;-1.700;2023-04-03T13:04:28;0.20;;;0.20;;
46925;SDS011;32667;48.248;-1.700;2023-04-03T13:06:57;0.28;;;0.28;;
46925;SDS011;32667;48.248;-1.700;2023-04-03T13:14:49;0.20;;;0.20;;
46925;SDS011;32667;48.248;-1.700;2023-04-03T13:17:21;0.20;;;0.20;;
46925;SDS011;32667;48.248;-1.700;2023-04-03T13:19:48;0.30;;;0.30;;
46925;SDS011;32667;48.248;-1.700;2023-04-03T13:24:54;0.20;;;0.20;;
46925;SDS011;32667;48.248;-1.700;2023-04-03T13:27:23;0.20;;;0.20;;
46925;SDS011;32667;48.248;-1.700;2023-04-03T13:29:50;0.20;;;0.20;;
46925;SDS011;32667;48.248;-1.700;2023-04-03T13:32:19;0.20;;;0.20;;
46925;SDS011;32667;48.248;-1.700;2023-04-03T13:34:47;0.20;;;0.20;;
46925;SDS011;32667;48.248;-1.700;2023-04-03T13:37:52;0.20;;;0.20;;
46925;SDS011;32667;48.248;-1.700;2023-04-03T13:40:18;0.13;;;0.13;;
46925;SDS011;32667;48.248;-1.700;2023-04-03T13:42:57;0.20;;;0.20;;
46925;SDS011;32667;48.248;-1.700;2023-04-03T13:45:32;0.20;;;0.20;;
46925;SDS011;32667;48.248;-1.700;2023-04-03T13:50:49;0.20;;;0.20;;
46925;SDS011;32667;48.248;-1.700;2023-04-03T13:53:19;0.20;;;0.20;;
46925;SDS011;32667;48.248;-1.700;2023-04-03T13:58:27;0.20;;;0.20;;
46925;SDS011;32667;48.248;-1.700;2023-04-03T14:06:20;0.17;;;0.17;;
46925;SDS011;32667;48.248;-1.700;2023-04-03T14:08:47;0.10;;;0.10;;
46925;SDS011;32667;48.248;-1.700;2023-04-03T14:11:35;0.17;;;0.17;;
46925;SDS011;32667;48.248;-1.700;2023-04-03T14:14:01;0.20;;;0.20;;
46925;SDS011;32667;48.248;-1.700;2023-04-03T14:16:37;0.20;;;0.20;;
46925;SDS011;32667;48.248;-1.700;2023-04-03T14:19:06;0.20;;;0.20;;
46925;SDS011;32667;48.248;-1.700;2023-04-03T14:21:32;0.20;;;0.20;;
46925;SDS011;32667;48.248;-1.700;2023-04-03T14:24:00;0.20;;;0.20;;
46925;SDS011;32667;48.248;-1.700;2023-04-03T14:26:28;0.20;;;0.20;;
46925;SDS011;32667;48.248;-1.700;2023-04-03T14:28:55;0.20;;;0.20;;
46925;SDS011;32667;48.248;-1.700;2023-04-03T14:31:21;0.20;;;0.20;;
46925;SDS011;32667;48.248;-1.700;2023-04-03T14:33:51;0.20;;;0.20;;
46925;SDS011;32667;48.248;-1.700;2023-04-03T14:36:28;0.20;;;0.20;;
46925;SDS011;32667;48.248;-1.700;2023-04-03T14:38:55;0.10;;;0.10;;
46925;SDS011;32667;48.248;-1.700;2023-04-03T14:41:22;0.10;;;0.10;;
46925;SDS011;32667;48.248;-1.700;2023-04-03T14:43:51;0.20;;;0.20;;
46925;SDS011;32667;48.248;-1.700;2023-04-03T14:46:25;0.15;;;0.15;;
46925;SDS011;32667;48.248;-1.700;2023-04-03T14:48:54;0.10;;;0.10;;
46925;SDS011;32667;48.248;-1.700;2023-04-03T14:51:21;0.20;;;0.20;;
46925;SDS011;32667;48.248;-1.700;2023-04-03T14:53:47;0.20;;;0.20;;
46925;SDS011;32667;48.248;-1.700;2023-04-03T14:56:16;0.20;;;0.20;;
46925;SDS011;32667;48.248;-1.700;2023-04-03T14:58:53;0.10;;;0.10;;
46925;SDS011;32667;48.248;-1.700;2023-04-03T15:01:24;0.10;;;0.10;;
46925;SDS011;32667;48.248;-1.700;2023-04-03T15:03:50;0.20;;;0.20;;
46925;SDS011;32667;48.248;-1.700;2023-04-03T15:06:16;0.10;;;0.10;;
46925;SDS011;32667;48.248;-1.700;2023-04-03T15:08:42;0.20;;;0.20;;
46925;SDS011;32667;48.248;-1.700;2023-04-03T15:11:10;0.20;;;0.20;;
46925;SDS011;32667;48.248;-1.700;2023-04-03T15:13:38;0.20;;;0.20;;
46925;SDS011;32667;48.248;-1.700;2023-04-03T15:16:04;0.10;;;0.10;;
46925;SDS011;32667;48.248;-1.700;2023-04-03T15:18:50;0.20;;;0.20;;
46925;SDS011;32667;48.248;-1.700;2023-04-03T15:21:16;0.10;;;0.10;;
46925;SDS011;32667;48.248;-1.700;2023-04-03T15:23:42;0.10;;;0.10;;
46925;SDS011;32667;48.248;-1.700;2023-04-03T15:26:08;0.20;;;0.20;;
46925;SDS011;32667;48.248;-1.700;2023-04-03T15:28:37;0.20;;;0.20;;
46925;SDS011;32667;48.248;-1.700;2023-04-03T15:31:05;0.20;;;0.20;;
46925;SDS011;32667;48.248;-1.700;2023-04-03T15:33:32;0.17;;;0.17;;
46925;SDS011;32667;48.248;-1.700;2023-04-03T15:35:59;0.20;;;0.20;;
46925;SDS011;32667;48.248;-1.700;2023-04-03T15:38:25;0.20;;;0.20;;
46925;SDS011;32667;48.248;-1.700;2023-04-03T15:40:50;0.10;;;0.10;;
46925;SDS011;32667;48.248;-1.700;2023-04-03T15:43:16;0.20;;;0.20;;
46925;SDS011;32667;48.248;-1.700;2023-04-03T15:45:42;0.10;;;0.10;;
46925;SDS011;32667;48.248;-1.700;2023-04-03T15:48:09;0.20;;;0.20;;
46925;SDS011;32667;48.248;-1.700;2023-04-03T15:50:36;0.17;;;0.17;;
46925;SDS011;32667;48.248;-1.700;2023-04-03T15:53:02;0.20;;;0.20;;
46925;SDS011;32667;48.248;-1.700;2023-04-03T15:55:28;0.10;;;0.10;;
46925;SDS011;32667;48.248;-1.700;2023-04-03T15:57:56;0.20;;;0.20;;
46925;SDS011;32667;48.248;-1.700;2023-04-03T16:00:22;0.10;;;0.10;;
46925;SDS011;32667;48.248;-1.700;2023-04-03T16:02:50;0.20;;;0.20;;
46925;SDS011;32667;48.248;-1.700;2023-04-03T16:05:19;0.20;;;0.20;;
46925;SDS011;32667;48.248;-1.700;2023-04-03T16:07:45;0.20;;;0.20;;
46925;SDS011;32667;48.248;-1.700;2023-04-03T16:10:12;0.10;;;0.10;;
46925;SDS011;32667;48.248;-1.700;2023-04-03T16:12:40;0.20;;;0.20;;
46925;SDS011;32667;48.248;-1.700;2023-04-03T16:15:06;0.13;;;0.13;;
46925;SDS011;32667;48.248;-1.700;2023-04-03T16:17:33;0.20;;;0.20;;
46925;SDS011;32667;48.248;-1.700;2023-04-03T16:20:03;0.20;;;0.20;;
46925;SDS011;32667;48.248;-1.700;2023-04-03T16:22:30;0.10;;;0.10;;
46925;SDS011;32667;48.248;-1.700;2023-04-03T16:24:59;0.10;;;0.10;;
46925;SDS011;32667;48.248;-1.700;2023-04-03T16:27:25;0.20;;;0.20;;
46925;SDS011;32667;48.248;-1.700;2023-04-03T16:29:53;0.20;;;0.20;;
46925;SDS011;32667;48.248;-1.700;2023-04-03T16:32:20;0.15;;;0.15;;
46925;SDS011;32667;48.248;-1.700;2023-04-03T16:34:46;0.20;;;0.20;;
46925;SDS011;32667;48.248;-1.700;2023-04-03T16:37:13;0.20;;;0.20;;
46925;SDS011;32667;48.248;-1.700;2023-04-03T16:39:40;0.10;;;0.10;;
46925;SDS011;32667;48.248;-1.700;2023-04-03T16:42:05;0.10;;;0.10;;
46925;SDS011;32667;48.248;-1.700;2023-04-03T16:44:31;0.20;;;0.20;;
46925;SDS011;32667;48.248;-1.700;2023-04-03T16:46:57;0.15;;;0.15;;
46925;SDS011;32667;48.248;-1.700;2023-04-03T16:49:23;0.20;;;0.20;;
46925;SDS011;32667;48.248;-1.700;2023-04-03T16:51:49;0.13;;;0.13;;
46925;SDS011;32667;48.248;-1.700;2023-04-03T16:54:15;0.20;;;0.20;;